Time;durP1;ratioP1;P1;durP2;ratioP2;P2;SDS_P1;SDS_P2;PMS_P1;PMS_P2;Temp;Humidity;BMP_temperature;BMP_pressure;BME280_temperature;BME280_humidity;BME280_pressure;Samples;Min_cycle;Max_cycle;Signal;HPM_P1;HPM_P2
2021/12/29 00:00:44;;;;;;;6.93;1.92;;;;;;;10.77;71.25;95931.88;5972146;23;20206;-83
2021/12/29 00:03:10;;;;;;;5.32;1.58;;;;;;;11.08;70.43;95932.34;5971848;23;20184;-84
2021/12/29 00:05:35;;;;;;;6.35;1.80;;;;;;;10.99;70.63;95934.00;5993103;23;20579;-83
2021/12/29 00:08:01;;;;;;;3.22;1.00;;;;;;;10.95;71.02;95938.19;6004974;23;20175;-86
2021/12/29 00:10:27;;;;;;;3.08;1.08;;;;;;;11.04;70.69;95937.31;6005453;23;20435;-85
2021/12/29 00:12:54;;;;;;;5.32;1.50;;;;;;;11.02;70.72;95943.88;5971016;23;20273;-83
2021/12/29 00:15:25;;;;;;;3.03;1.35;;;;;;;10.87;71.07;95937.75;5981626;23;20591;-82
2021/12/29 00:17:51;;;;;;;5.30;1.25;;;;;;;11.06;70.64;95939.66;5949669;23;20095;-85
2021/12/29 00:20:19;;;;;;;5.13;1.45;;;;;;;11.00;70.45;95944.16;5981229;23;20194;-84
2021/12/29 00:22:45;;;;;;;7.13;1.65;;;;;;;10.89;71.30;95939.31;5972462;23;20080;-86
2021/12/29 00:25:10;;;;;;;4.38;1.45;;;;;;;10.97;70.73;95936.88;5972017;23;20359;-85
2021/12/29 00:27:36;;;;;;;3.60;1.42;;;;;;;10.84;70.81;95938.31;5971056;23;20225;-85
2021/12/29 00:30:03;;;;;;;5.90;1.55;;;;;;;10.73;71.62;95951.69;5973284;23;20164;-85
2021/12/29 00:32:28;;;;;;;5.78;1.40;;;;;;;10.91;70.83;95951.00;5948294;23;20152;-84
2021/12/29 00:34:54;;;;;;;5.75;1.13;;;;;;;10.96;70.86;95960.59;5947931;23;20108;-85
2021/12/29 00:37:19;;;;;;;5.82;1.85;;;;;;;10.89;71.37;95971.34;5971473;23;20136;-84
2021/12/29 00:39:45;;;;;;;4.40;1.20;;;;;;;10.91;71.01;95978.88;5971611;23;20182;-85
2021/12/29 00:42:10;;;;;;;5.35;1.98;;;;;;;11.04;70.35;95993.84;5981594;23;20259;-84
2021/12/29 00:44:36;;;;;;;2.90;1.02;;;;;;;11.14;70.33;96003.38;5947587;23;20274;-85
2021/12/29 00:47:02;;;;;;;3.90;1.27;;;;;;;10.99;70.95;96009.53;5971555;23;20192;-85
2021/12/29 00:49:36;;;;;;;4.47;1.60;;;;;;;11.08;70.42;96002.66;5948455;23;20167;-84
2021/12/29 00:52:05;;;;;;;4.53;1.20;;;;;;;10.97;70.36;96001.22;6005829;23;20084;-85
2021/12/29 00:54:30;;;;;;;3.80;1.00;;;;;;;10.85;71.42;96006.81;5983535;23;20193;-84
2021/12/29 00:56:56;;;;;;;5.03;1.38;;;;;;;10.97;70.95;96020.22;5995650;23;20272;-84
2021/12/29 00:59:23;;;;;;;5.35;1.13;;;;;;;11.02;70.52;96040.25;5995949;23;20219;-85
2021/12/29 01:01:49;;;;;;;2.97;0.95;;;;;;;11.17;70.16;96039.31;6029656;23;20213;-85
2021/12/29 01:04:15;;;;;;;10.20;1.60;;;;;;;10.93;71.27;96054.91;5995753;23;20186;-84
2021/12/29 01:06:40;;;;;;;2.85;0.90;;;;;;;10.86;71.18;96052.59;5995686;23;20395;-85
2021/12/29 01:09:06;;;;;;;5.30;1.45;;;;;;;10.95;71.17;96048.38;6028831;23;20656;-84
2021/12/29 01:11:31;;;;;;;3.67;0.80;;;;;;;10.88;71.31;96040.09;5971392;23;20209;-86
2021/12/29 01:13:57;;;;;;;4.15;1.17;;;;;;;10.98;70.99;96029.56;6004161;23;20182;-83
2021/12/29 01:19:04;;;;;;;1.60;0.70;;;;;;;10.86;71.12;96050.78;6029545;23;20577;-83
2021/12/29 01:21:31;;;;;;;3.28;1.02;;;;;;;10.96;70.92;96064.78;5995475;23;20230;-86
2021/12/29 01:23:57;;;;;;;3.03;1.17;;;;;;;10.84;71.52;96072.94;6029083;23;20174;-85
2021/12/29 01:26:22;;;;;;;3.28;1.02;;;;;;;10.54;72.30;96064.31;5994937;23;20197;-84
2021/12/29 01:28:48;;;;;;;4.53;1.10;;;;;;;10.60;72.13;96091.06;6029435;23;20186;-84
2021/12/29 01:31:15;;;;;;;4.05;1.00;;;;;;;10.78;71.58;96089.63;6029237;23;20194;-86
2021/12/29 01:33:40;;;;;;;2.28;0.70;;;;;;;10.67;71.74;96105.34;6029477;23;20177;-85
2021/12/29 01:36:05;;;;;;;3.88;1.85;;;;;;;10.60;71.63;96104.88;6029000;23;20190;-83
2021/12/29 01:38:31;;;;;;;4.10;1.13;;;;;;;10.55;72.20;96106.72;6028498;23;20229;-84
2021/12/29 01:40:56;;;;;;;4.97;1.20;;;;;;;10.77;71.74;96114.13;6005031;23;20258;-85
2021/12/29 01:43:22;;;;;;;2.47;1.08;;;;;;;10.70;71.89;96122.25;5994812;23;20252;-85
2021/12/29 01:45:47;;;;;;;8.30;1.45;;;;;;;10.81;71.63;96117.75;5994048;23;20127;-84
2021/12/29 01:48:13;;;;;;;5.65;1.27;;;;;;;10.80;71.44;96131.81;6028423;23;20225;-85
2021/12/29 01:50:40;;;;;;;4.15;2.05;;;;;;;11.01;71.02;96132.44;5993997;23;20159;-86
2021/12/29 01:53:10;;;;;;;3.00;1.33;;;;;;;10.62;72.08;96120.22;5994653;23;20268;-85
2021/12/29 01:55:37;;;;;;;3.63;0.95;;;;;;;10.44;72.34;96098.97;6018878;23;20283;-85
2021/12/29 01:58:03;;;;;;;7.10;1.08;;;;;;;10.63;71.94;96111.38;5992226;23;20178;-85
2021/12/29 02:00:31;;;;;;;7.15;1.45;;;;;;;10.64;72.04;96131.94;5993086;23;20182;-85
2021/12/29 02:02:56;;;;;;;5.10;1.38;;;;;;;10.37;72.48;96145.34;5992593;23;20252;-84
2021/12/29 02:05:22;;;;;;;4.00;1.65;;;;;;;10.89;71.28;96147.66;5992730;23;20533;-84
2021/12/29 02:07:48;;;;;;;5.47;1.85;;;;;;;10.78;70.96;96149.53;5995122;23;20175;-83
2021/12/29 02:10:15;;;;;;;8.00;1.92;;;;;;;10.74;70.74;96146.69;5995792;23;20286;-84
2021/12/29 02:12:41;;;;;;;3.85;1.20;;;;;;;10.78;71.03;96165.16;6028455;23;20537;-86
2021/12/29 02:15:08;;;;;;;4.80;1.40;;;;;;;10.75;71.12;96161.28;5970594;23;20620;-85
2021/12/29 02:17:34;;;;;;;2.40;1.20;;;;;;;10.61;71.52;96168.91;5994473;23;20264;-85
2021/12/29 02:20:02;;;;;;;8.80;1.60;;;;;;;10.60;71.31;96169.94;5971155;23;20248;-85
2021/12/29 02:25:06;;;;;;;2.80;1.10;;;;;;;10.73;71.62;96176.38;6027395;23;20139;-84
2021/12/29 02:27:32;;;;;;;5.82;1.33;;;;;;;11.04;70.25;96202.25;6030911;23;20178;-86
2021/12/29 02:29:58;;;;;;;4.20;1.20;;;;;;;10.95;70.46;96209.84;5994371;23;20182;-81
2021/12/29 02:32:24;;;;;;;3.22;1.02;;;;;;;10.76;71.39;96201.91;6028589;23;20186;-85
2021/12/29 02:34:49;;;;;;;2.50;1.20;;;;;;;10.83;71.15;96206.78;6028616;23;20486;-83
2021/12/29 02:37:19;;;;;;;4.32;0.73;;;;;;;10.85;71.12;96207.31;5994086;23;20588;-84
2021/12/29 02:39:45;;;;;;;3.00;0.80;;;;;;;11.04;70.50;96218.63;5995002;23;20297;-86
2021/12/29 02:42:15;;;;;;;3.22;0.70;;;;;;;11.01;70.79;96218.41;5995308;23;20243;-86
2021/12/29 02:44:42;;;;;;;2.50;0.88;;;;;;;11.00;70.73;96224.66;5994585;23;20196;-84
2021/12/29 02:47:08;;;;;;;3.95;0.90;;;;;;;11.13;70.53;96233.69;5994420;23;20256;-85
2021/12/29 02:49:34;;;;;;;3.20;1.08;;;;;;;10.74;71.33;96230.00;6028422;23;20165;-85
2021/12/29 02:51:59;;;;;;;3.72;1.17;;;;;;;10.81;71.13;96233.09;5994309;23;20264;-85
2021/12/29 02:54:24;;;;;;;2.40;0.80;;;;;;;11.01;70.92;96242.63;6020652;23;20691;-84
2021/12/29 02:56:54;;;;;;;2.25;0.90;;;;;;;10.36;72.60;96240.06;5993520;23;20189;-84
2021/12/29 02:59:21;;;;;;;1.75;1.00;;;;;;;10.71;72.01;96250.59;6027334;23;20201;-83
2021/12/29 03:01:46;;;;;;;4.95;0.85;;;;;;;10.72;71.78;96252.16;5970581;23;20613;-85
2021/12/29 03:04:12;;;;;;;3.70;0.82;;;;;;;10.81;71.28;96237.50;5993589;23;20147;-82
2021/12/29 03:06:40;;;;;;;4.43;1.20;;;;;;;10.90;71.17;96243.75;6027524;23;20264;-83
2021/12/29 03:09:07;;;;;;;3.47;1.58;;;;;;;10.98;70.23;96250.97;6027896;23;20253;-84
2021/12/29 03:11:33;;;;;;;2.75;1.02;;;;;;;11.03;70.47;96245.72;5992547;23;20221;-84
2021/12/29 03:13:59;;;;;;;1.73;0.98;;;;;;;11.02;70.39;96238.22;6027347;23;20052;-84
2021/12/29 03:16:24;;;;;;;4.43;1.70;;;;;;;10.96;70.81;96263.47;5969146;23;20226;-85
2021/12/29 03:18:50;;;;;;;5.22;1.27;;;;;;;10.77;71.40;96257.34;6027169;23;20261;-85
2021/12/29 03:21:16;;;;;;;3.72;0.98;;;;;;;10.74;71.43;96239.63;5970847;23;20205;-84
2021/12/29 03:23:42;;;;;;;4.60;1.25;;;;;;;10.98;71.03;96260.59;6027457;23;20616;-84
2021/12/29 03:26:07;;;;;;;2.55;0.90;;;;;;;10.80;70.98;96259.41;5993789;23;20660;-85
2021/12/29 03:28:33;;;;;;;2.45;1.00;;;;;;;10.97;70.92;96251.25;5991863;23;20182;-84
2021/12/29 03:30:58;;;;;;;2.85;1.00;;;;;;;10.98;71.16;96247.59;6026641;23;20143;-83
2021/12/29 03:33:25;;;;;;;5.32;1.65;;;;;;;10.92;70.66;96252.06;6028204;23;20262;-83
2021/12/29 03:35:55;;;;;;;2.67;1.10;;;;;;;10.74;70.97;96250.06;6004047;23;20098;-81
2021/12/29 03:38:25;;;;;;;3.15;1.10;;;;;;;10.64;71.70;96251.66;5994127;23;20147;-84
2021/12/29 03:40:51;;;;;;;3.42;1.52;;;;;;;10.61;71.67;96254.81;6028374;23;20258;-84
2021/12/29 03:43:19;;;;;;;5.72;1.83;;;;;;;10.85;71.39;96251.56;6028404;23;20280;-84
2021/12/29 03:45:46;;;;;;;2.38;1.30;;;;;;;10.78;71.14;96248.47;5994679;23;20079;-83
2021/12/29 03:48:12;;;;;;;4.75;1.50;;;;;;;10.73;71.42;96264.09;5994688;23;20197;-83
2021/12/29 03:50:38;;;;;;;4.00;1.63;;;;;;;10.83;71.04;96266.66;5971097;23;20529;-84
2021/12/29 03:53:04;;;;;;;5.47;1.80;;;;;;;10.55;71.95;96281.13;6026722;23;20201;-84
2021/12/29 03:55:30;;;;;;;2.92;1.55;;;;;;;10.62;72.29;96290.19;6052517;23;20217;-83
2021/12/29 03:57:55;;;;;;;4.45;1.35;;;;;;;10.79;71.43;96284.66;5994191;23;20182;-83
2021/12/29 04:00:21;;;;;;;4.50;1.90;;;;;;;10.85;71.40;96296.63;5994320;23;20565;-84
2021/12/29 04:02:47;;;;;;;4.15;1.38;;;;;;;10.96;70.59;96292.13;5994372;23;20223;-84
2021/12/29 04:05:19;;;;;;;3.50;1.63;;;;;;;10.89;69.96;96283.06;5994644;23;20261;-84
2021/12/29 04:07:44;;;;;;;5.35;1.20;;;;;;;10.92;70.88;96285.16;5994072;23;20256;-83
2021/12/29 04:10:10;;;;;;;4.60;1.38;;;;;;;10.85;71.19;96299.22;6004572;23;20230;-84
2021/12/29 04:12:39;;;;;;;4.38;1.73;;;;;;;10.76;71.08;96297.44;5970384;23;20272;-84
2021/12/29 04:15:05;;;;;;;4.20;1.50;;;;;;;10.84;70.70;96292.44;5969874;23;20182;-84
2021/12/29 04:17:36;;;;;;;3.53;1.20;;;;;;;10.90;70.68;96310.66;6016559;23;20267;-84
2021/12/29 04:23:06;;;;;;;4.30;1.85;;;;;;;10.90;70.14;96316.66;6016610;23;20201;-83
2021/12/29 04:25:35;;;;;;;2.85;1.13;;;;;;;10.94;70.21;96328.09;5993439;23;20239;-84
2021/12/29 04:28:02;;;;;;;5.13;1.30;;;;;;;10.97;70.10;96326.78;6029222;23;20237;-84
2021/12/29 04:30:28;;;;;;;4.90;1.50;;;;;;;11.01;69.64;96317.38;6029895;23;20178;-83
2021/12/29 04:32:53;;;;;;;6.28;1.52;;;;;;;10.90;70.05;96319.25;5972844;23;20228;-84
2021/12/29 04:35:22;;;;;;;3.05;1.13;;;;;;;10.90;69.62;96316.66;5972810;23;20273;-84
2021/12/29 04:37:49;;;;;;;4.03;1.48;;;;;;;11.05;69.88;96331.41;5995891;23;20111;-84
2021/12/29 04:40:15;;;;;;;4.80;1.58;;;;;;;11.03;69.50;96333.53;6005771;23;20182;-83
2021/12/29 04:42:40;;;;;;;2.75;1.30;;;;;;;10.81;70.73;96339.06;5972365;23;20098;-84
2021/12/29 04:45:06;;;;;;;4.05;1.20;;;;;;;10.96;69.99;96346.81;5995740;23;20176;-83
2021/12/29 04:47:32;;;;;;;2.28;1.08;;;;;;;10.89;69.90;96346.34;6005517;23;20681;-84
2021/12/29 04:50:00;;;;;;;4.60;1.40;;;;;;;11.05;69.94;96357.47;5971435;23;20589;-84
2021/12/29 04:52:27;;;;;;;1.92;1.00;;;;;;;10.99;69.97;96354.13;6029417;23;20226;-84
2021/12/29 04:54:53;;;;;;;2.92;0.90;;;;;;;11.05;70.05;96350.44;5980414;23;20285;-85
2021/12/29 04:57:19;;;;;;;3.10;1.08;;;;;;;10.88;70.33;96352.59;5971316;23;20518;-84
2021/12/29 04:59:44;;;;;;;2.97;1.77;;;;;;;10.94;69.78;96346.31;6004877;23;20258;-84
2021/12/29 05:02:09;;;;;;;1.90;0.90;;;;;;;10.93;69.87;96354.41;5981403;23;20209;-84
2021/12/29 05:04:44;;;;;;;4.18;1.23;;;;;;;10.93;69.91;96351.78;5972003;23;20595;-85
2021/12/29 05:09:54;;;;;;;2.10;0.73;;;;;;;10.88;70.16;96365.59;5974928;23;20201;-84
2021/12/29 05:12:19;;;;;;;2.60;1.63;;;;;;;10.67;70.83;96377.91;5970912;23;20339;-86
2021/12/29 05:14:45;;;;;;;3.83;1.30;;;;;;;10.72;70.96;96366.72;5971923;23;20257;-84
2021/12/29 05:17:10;;;;;;;1.63;0.90;;;;;;;10.92;70.00;96379.66;5948007;23;20293;-84
2021/12/29 05:19:35;;;;;;;2.65;1.13;;;;;;;10.89;70.17;96377.59;6004706;23;20258;-84
2021/12/29 05:22:02;;;;;;;2.38;0.82;;;;;;;10.99;69.85;96382.75;5948097;23;20637;-84
2021/12/29 05:24:28;;;;;;;3.85;1.13;;;;;;;10.96;70.26;96393.72;6003884;23;20590;-84
2021/12/29 05:26:53;;;;;;;3.67;1.13;;;;;;;10.97;69.87;96400.50;5946778;23;20220;-84
2021/12/29 05:29:19;;;;;;;3.70;1.10;;;;;;;10.93;69.77;96398.66;5980191;23;20302;-84
2021/12/29 05:31:44;;;;;;;2.63;1.38;;;;;;;10.99;70.19;96406.22;5947554;23;20272;-84
2021/12/29 05:34:09;;;;;;;4.10;1.25;;;;;;;10.97;69.71;96400.50;6004808;23;20353;-84
2021/12/29 05:36:35;;;;;;;3.17;1.33;;;;;;;10.89;69.54;96389.84;5994672;23;20713;-84
2021/12/29 05:39:00;;;;;;;6.00;1.75;;;;;;;11.00;70.00;96397.34;5971353;23;20235;-84
2021/12/29 05:41:25;;;;;;;2.67;1.13;;;;;;;10.82;70.17;96395.31;5981201;23;20653;-84
2021/12/29 05:43:51;;;;;;;4.05;1.27;;;;;;;10.79;70.44;96391.41;6004365;23;20145;-84
2021/12/29 05:46:17;;;;;;;4.95;1.20;;;;;;;10.93;70.15;96393.47;5994638;23;20179;-84
2021/12/29 05:48:42;;;;;;;3.30;1.17;;;;;;;11.03;69.85;96403.84;5971133;23;20247;-84
2021/12/29 05:51:11;;;;;;;4.90;1.20;;;;;;;10.93;69.97;96399.44;5947426;23;20277;-84
2021/12/29 05:53:37;;;;;;;5.28;1.20;;;;;;;10.97;70.17;96390.06;5972945;23;20660;-84
2021/12/29 05:56:03;;;;;;;2.53;1.20;;;;;;;11.00;69.88;96389.53;6028867;23;20194;-84
2021/12/29 05:58:29;;;;;;;4.72;2.00;;;;;;;11.02;69.60;96397.88;6028075;23;20644;-84
2021/12/29 06:00:54;;;;;;;2.72;1.30;;;;;;;10.93;69.81;96399.44;6027562;23;20191;-85
2021/12/29 06:03:20;;;;;;;2.13;1.33;;;;;;;11.03;69.95;96404.63;5994420;23;20238;-85
2021/12/29 06:05:46;;;;;;;3.28;1.40;;;;;;;11.04;69.84;96398.38;5993952;23;20600;-84
2021/12/29 06:08:11;;;;;;;3.95;1.58;;;;;;;11.03;69.82;96403.84;6027722;23;20211;-84
2021/12/29 06:10:36;;;;;;;3.67;1.55;;;;;;;11.01;70.02;96405.94;6052266;23;20388;-84
2021/12/29 06:13:02;;;;;;;4.93;1.27;;;;;;;10.89;69.95;96408.84;6026756;23;20600;-85
2021/12/29 06:15:27;;;;;;;4.78;2.50;;;;;;;11.02;69.64;96418.72;6028182;23;20173;-84
2021/12/29 06:17:53;;;;;;;3.55;1.10;;;;;;;11.09;69.56;96425.44;6027021;23;20660;-84
2021/12/29 06:20:18;;;;;;;3.67;1.20;;;;;;;11.01;69.84;96430.16;5994058;23;20238;-85
2021/12/29 06:22:44;;;;;;;6.35;1.10;;;;;;;11.06;69.81;96430.16;5993908;23;20181;-84
2021/12/29 06:25:13;;;;;;;2.05;1.40;;;;;;;10.94;69.84;96429.66;5993866;23;20174;-84
2021/12/29 06:27:39;;;;;;;3.05;1.35;;;;;;;11.05;70.10;96435.63;6026161;23;20695;-84
2021/12/29 06:30:07;;;;;;;1.92;1.08;;;;;;;10.92;69.56;96436.97;5994313;23;20298;-85
2021/12/29 06:32:32;;;;;;;2.13;0.85;;;;;;;11.01;69.63;96437.97;6017036;23;20253;-85
2021/12/29 06:34:57;;;;;;;3.08;1.33;;;;;;;11.06;69.68;96443.16;6028402;23;20233;-85
2021/12/29 06:37:23;;;;;;;2.75;1.20;;;;;;;10.96;70.13;96451.00;5994736;23;20584;-84
2021/12/29 06:39:49;;;;;;;4.35;0.93;;;;;;;10.89;70.26;96445.31;5994752;23;20217;-85
2021/12/29 06:42:15;;;;;;;1.85;1.00;;;;;;;10.97;70.13;96447.38;6027597;23;20225;-84
2021/12/29 06:44:41;;;;;;;1.20;0.90;;;;;;;11.02;69.98;96455.19;5994909;23;20225;-84
2021/12/29 06:47:07;;;;;;;3.17;1.50;;;;;;;11.01;70.14;96464.03;5994228;23;20186;-84
2021/12/29 06:49:33;;;;;;;2.42;1.10;;;;;;;11.08;70.13;96470.78;6004177;23;20075;-84
2021/12/29 06:51:58;;;;;;;2.75;1.00;;;;;;;11.00;70.30;96472.09;6018330;23;20170;-84
2021/12/29 06:54:23;;;;;;;2.40;1.17;;;;;;;10.95;69.85;96461.69;6021356;23;20152;-84
2021/12/29 06:56:49;;;;;;;2.40;1.10;;;;;;;10.79;70.30;96463.56;6027690;23;20181;-83
2021/12/29 06:59:14;;;;;;;3.15;1.40;;;;;;;10.84;70.15;96460.94;5970093;23;20202;-84
2021/12/29 07:01:40;;;;;;;2.58;1.20;;;;;;;10.91;69.97;96474.47;6004557;23;20237;-84
2021/12/29 07:04:05;;;;;;;3.70;2.00;;;;;;;10.98;70.30;96474.97;6028221;23;20218;-84
2021/12/29 07:06:31;;;;;;;7.00;1.67;;;;;;;11.01;69.91;96495.28;5994159;23;20482;-84
2021/12/29 07:08:56;;;;;;;3.92;1.23;;;;;;;11.04;69.92;96497.38;6028503;23;20507;-83
2021/12/29 07:11:21;;;;;;;4.60;1.48;;;;;;;10.93;69.46;96493.22;5994069;23;20175;-84
2021/12/29 07:13:47;;;;;;;2.33;1.30;;;;;;;11.04;69.93;96509.63;6027178;23;20605;-84
2021/12/29 07:16:12;;;;;;;4.05;1.40;;;;;;;11.04;69.96;96512.22;5994284;23;20193;-84
2021/12/29 07:18:38;;;;;;;6.95;1.55;;;;;;;11.09;69.49;96522.63;6051951;23;20178;-84
2021/12/29 07:21:03;;;;;;;5.28;1.27;;;;;;;11.06;69.72;96516.13;5994618;23;20198;-84
2021/12/29 07:23:29;;;;;;;5.22;1.50;;;;;;;10.93;69.97;96493.22;6027624;23;20583;-84
2021/12/29 07:25:54;;;;;;;4.05;1.20;;;;;;;10.93;69.84;96502.84;5994006;23;20570;-84
2021/12/29 07:28:19;;;;;;;5.65;1.55;;;;;;;11.05;69.82;96527.59;6028777;23;20598;-84
2021/12/29 07:30:45;;;;;;;11.25;1.42;;;;;;;11.03;69.78;96513.25;5994778;23;20217;-84
2021/12/29 07:33:10;;;;;;;2.50;1.40;;;;;;;11.12;70.06;96531.75;6028449;23;20170;-84
2021/12/29 07:35:36;;;;;;;6.15;1.95;;;;;;;11.14;69.60;96524.44;5993688;23;20194;-84
2021/12/29 07:38:01;;;;;;;4.97;1.60;;;;;;;11.08;69.54;96515.09;5993404;23;20238;-84
2021/12/29 07:40:27;;;;;;;6.55;1.60;;;;;;;11.02;69.82;96509.88;6027439;23;20144;-83
2021/12/29 07:42:52;;;;;;;4.82;1.90;;;;;;;11.04;69.52;96515.59;5970172;23;20143;-83
2021/12/29 07:45:19;;;;;;;3.88;1.20;;;;;;;11.07;69.77;96535.16;5994139;23;20221;-83
2021/12/29 07:47:47;;;;;;;6.63;1.63;;;;;;;10.98;69.63;96534.88;6028130;23;20139;-84
2021/12/29 07:50:21;;;;;;;6.07;1.70;;;;;;;10.99;69.85;96552.06;6027813;23;20245;-83
2021/12/29 07:52:48;;;;;;;7.05;1.70;;;;;;;11.02;69.80;96548.94;5993713;23;20253;-84
2021/12/29 07:55:18;;;;;;;7.38;2.30;;;;;;;10.82;69.67;96544.53;6014896;23;20595;-83
2021/12/29 07:57:45;;;;;;;5.03;2.08;;;;;;;11.01;69.80;96541.41;6003401;23;20246;-84
2021/12/29 08:00:11;;;;;;;6.43;2.20;;;;;;;10.99;69.63;96554.69;6028735;23;20205;-84
2021/12/29 08:02:37;;;;;;;8.35;2.50;;;;;;;11.03;69.90;96544.50;5996471;23;20259;-84
2021/12/29 08:05:08;;;;;;;6.63;2.22;;;;;;;10.94;69.91;96541.66;5997094;23;20582;-83
2021/12/29 08:07:34;;;;;;;8.32;2.33;;;;;;;11.10;69.62;96547.63;6005911;23;20176;-83
2021/12/29 08:09:59;;;;;;;6.68;2.60;;;;;;;11.18;69.69;96557.53;5972372;23;20157;-84
2021/12/29 08:12:24;;;;;;;4.50;2.28;;;;;;;11.16;69.85;96569.28;6028988;23;20586;-84
2021/12/29 08:14:51;;;;;;;6.07;1.92;;;;;;;11.12;70.03;96560.41;6004755;23;20088;-84
2021/12/29 08:17:17;;;;;;;9.48;2.75;;;;;;;11.11;69.82;96551.03;6028551;23;20188;-83
2021/12/29 08:19:43;;;;;;;6.47;3.20;;;;;;;11.20;69.37;96558.03;5971840;23;20262;-83
2021/12/29 08:22:09;;;;;;;6.93;2.72;;;;;;;11.27;69.73;96554.38;6019184;23;20582;-84
2021/12/29 08:24:34;;;;;;;7.15;2.47;;;;;;;11.23;69.72;96554.13;5980660;23;20651;-83
2021/12/29 08:27:00;;;;;;;5.22;2.17;;;;;;;11.21;69.63;96564.06;6003907;23;20153;-84
2021/12/29 08:29:25;;;;;;;5.32;2.30;;;;;;;11.15;69.95;96555.44;6005479;23;20232;-83
2021/12/29 08:31:51;;;;;;;8.10;2.45;;;;;;;11.15;69.70;96559.88;5995692;23;20187;-84
2021/12/29 08:34:16;;;;;;;9.43;3.22;;;;;;;11.01;70.07;96542.16;5995275;23;20160;-83
2021/12/29 08:36:42;;;;;;;4.05;2.03;;;;;;;10.99;70.09;96549.47;5994824;23;20194;-84
2021/12/29 08:39:07;;;;;;;8.30;2.10;;;;;;;11.15;70.36;96559.88;6029571;23;20261;-84
2021/12/29 08:41:33;;;;;;;7.82;2.50;;;;;;;11.15;70.01;96563.25;6029094;23;20151;-83
2021/12/29 08:43:58;;;;;;;8.48;2.60;;;;;;;11.21;69.57;96564.81;5994933;23;20179;-83
2021/12/29 08:46:24;;;;;;;8.25;3.08;;;;;;;11.16;69.79;96564.06;6028663;23;20530;-84
2021/12/29 08:48:49;;;;;;;5.70;2.00;;;;;;;11.31;69.29;96556.22;5971550;23;20195;-84
2021/12/29 08:51:15;;;;;;;7.32;2.50;;;;;;;11.24;69.70;96548.66;6004985;23;20148;-84
2021/12/29 08:53:41;;;;;;;8.23;2.47;;;;;;;11.28;69.73;96563.78;5998680;23;20543;-83
2021/12/29 08:56:07;;;;;;;6.00;1.98;;;;;;;11.30;69.47;96572.88;5971501;23;20172;-84
2021/12/29 08:58:32;;;;;;;9.30;1.90;;;;;;;11.28;69.60;96574.97;5971664;23;20719;-83
2021/12/29 09:00:59;;;;;;;9.57;3.40;;;;;;;11.35;69.32;96570.28;6030934;23;20249;-84
2021/12/29 09:03:25;;;;;;;4.10;1.77;;;;;;;11.25;69.81;96567.69;5948547;23;20227;-84
2021/12/29 09:05:50;;;;;;;5.22;1.48;;;;;;;11.21;70.29;96569.25;6001806;23;20152;-83
2021/12/29 09:08:16;;;;;;;6.00;2.05;;;;;;;11.25;69.83;96568.44;5947163;23;20214;-83
2021/12/29 09:10:42;;;;;;;6.22;2.40;;;;;;;11.25;70.45;96573.66;5947378;23;20259;-84
2021/12/29 09:13:07;;;;;;;6.88;2.53;;;;;;;11.28;69.88;96585.41;6003724;23;20219;-83
2021/12/29 09:15:33;;;;;;;4.10;1.63;;;;;;;11.27;69.90;96591.66;5970915;23;20079;-83
2021/12/29 09:18:01;;;;;;;6.10;1.50;;;;;;;11.35;69.86;96598.94;5947111;23;20520;-84
2021/12/29 09:20:30;;;;;;;4.97;1.35;;;;;;;11.34;69.10;96597.38;6004598;23;20227;-84
2021/12/29 09:23:05;;;;;;;5.18;1.70;;;;;;;11.17;70.21;96584.66;6003957;23;20340;-83
2021/12/29 09:25:32;;;;;;;6.20;1.38;;;;;;;11.17;69.99;96571.63;6004235;23;20364;-83
2021/12/29 09:27:58;;;;;;;4.95;2.50;;;;;;;11.39;69.42;96596.59;6003607;23;20379;-84
2021/12/29 09:30:27;;;;;;;5.88;2.03;;;;;;;11.36;69.45;96595.31;6002062;23;20396;-84
2021/12/29 09:32:53;;;;;;;5.20;1.65;;;;;;;11.36;69.08;96594.50;5970723;23;20246;-84
2021/12/29 09:35:20;;;;;;;3.50;1.33;;;;;;;11.46;68.99;96614.56;6003755;23;20197;-84
2021/12/29 09:37:46;;;;;;;5.32;1.65;;;;;;;11.43;69.48;96595.03;5970605;23;20125;-83
2021/12/29 09:40:13;;;;;;;2.70;1.30;;;;;;;11.46;69.39;96591.09;5957345;23;20360;-84
2021/12/29 09:42:38;;;;;;;5.35;1.67;;;;;;;11.34;69.57;96586.94;5978229;23;20672;-83
2021/12/29 09:45:05;;;;;;;3.53;1.50;;;;;;;11.34;69.37;96581.72;5969945;23;20175;-84
2021/12/29 09:47:30;;;;;;;4.28;1.58;;;;;;;11.45;69.46;96582.50;5979510;23;20143;-84
2021/12/29 09:49:56;;;;;;;6.15;2.50;;;;;;;11.44;69.14;96581.72;5946638;23;20607;-84
2021/12/29 09:52:21;;;;;;;4.15;1.38;;;;;;;11.56;69.34;96588.47;5970398;23;20228;-83
2021/12/29 09:54:47;;;;;;;2.22;1.45;;;;;;;11.51;69.16;96586.66;5986080;23;20243;-83
2021/12/29 09:57:13;;;;;;;3.33;1.60;;;;;;;11.48;69.37;96586.41;6028048;23;20332;-83
2021/12/29 09:59:38;;;;;;;3.55;1.80;;;;;;;11.40;69.81;96588.50;5994402;23;20185;-84
2021/12/29 10:02:04;;;;;;;3.20;1.27;;;;;;;11.42;70.00;96575.97;6028175;23;20608;-84
2021/12/29 10:04:34;;;;;;;3.15;1.33;;;;;;;11.47;69.85;96570.00;6030377;23;20143;-84
2021/12/29 10:07:13;;;;;;;4.10;1.50;;;;;;;11.19;70.09;96584.34;5993371;23;20328;-84
2021/12/29 10:09:39;;;;;;;2.85;1.20;;;;;;;11.47;69.71;96577.81;6028934;23;20173;-84
2021/12/29 10:12:10;;;;;;;1.95;1.30;;;;;;;11.34;69.91;96576.50;5994692;23;20562;-83
2021/12/29 10:14:36;;;;;;;3.55;1.42;;;;;;;11.41;69.89;96566.63;6027990;23;20503;-84
2021/12/29 10:17:09;;;;;;;1.75;1.40;;;;;;;11.25;70.25;96578.88;6027775;23;20233;-82
2021/12/29 10:19:36;;;;;;;2.90;1.38;;;;;;;11.49;69.60;96570.50;5994379;23;20182;-84
2021/12/29 10:22:02;;;;;;;2.47;1.17;;;;;;;11.48;70.24;96573.38;5994732;23;20308;-84
2021/12/29 10:24:27;;;;;;;3.55;1.30;;;;;;;11.51;69.79;96575.44;5993413;23;20278;-83
2021/12/29 10:26:57;;;;;;;4.18;1.52;;;;;;;11.40;70.46;96585.91;6027334;23;20139;-84
2021/12/29 10:29:22;;;;;;;2.92;1.40;;;;;;;11.52;70.17;96582.25;6024668;23;20652;-84
2021/12/29 10:31:50;;;;;;;2.03;1.10;;;;;;;11.49;69.73;96583.53;5992199;23;20253;-83
2021/12/29 10:34:21;;;;;;;2.35;1.40;;;;;;;11.49;70.74;96587.97;6050462;23;20233;-84
2021/12/29 10:36:52;;;;;;;2.33;1.08;;;;;;;11.51;70.23;96588.47;5969512;23;20178;-84
2021/12/29 10:39:32;;;;;;;4.20;1.35;;;;;;;11.35;71.05;96579.91;6027654;23;20154;-84
2021/12/29 10:42:17;;;;;;;2.67;1.60;;;;;;;11.38;71.02;96569.75;5970742;23;20178;-84
2021/12/29 10:44:44;;;;;;;2.80;1.73;;;;;;;11.58;70.97;96571.53;6017687;23;20178;-83
2021/12/29 10:47:25;;;;;;;3.88;1.55;;;;;;;11.45;70.50;96566.88;5993913;23;20340;-83
2021/12/29 10:50:12;;;;;;;6.03;2.13;;;;;;;11.40;70.97;96559.84;6027742;23;20283;-84
2021/12/29 10:52:38;;;;;;;2.40;1.60;;;;;;;11.63;70.96;96555.06;6027618;23;20562;-83
2021/12/29 10:55:07;;;;;;;3.58;2.60;;;;;;;11.49;70.52;96541.06;6042829;23;20237;-83
2021/12/29 10:57:33;;;;;;;7.40;2.45;;;;;;;11.69;70.47;96545.44;5992683;23;20257;-83
2021/12/29 10:59:59;;;;;;;3.70;2.22;;;;;;;11.79;70.36;96551.38;6002680;23;20146;-83
2021/12/29 11:02:31;;;;;;;5.50;2.03;;;;;;;11.72;70.11;96550.09;6028107;23;20352;-83
2021/12/29 11:05:02;;;;;;;5.78;2.28;;;;;;;11.42;70.93;96551.75;6030219;23;20289;-83
2021/12/29 11:07:30;;;;;;;4.00;1.92;;;;;;;11.49;71.14;96556.69;5991585;23;20209;-84
2021/12/29 11:09:56;;;;;;;4.47;2.30;;;;;;;11.58;71.11;96557.69;5970353;23;20214;-83
2021/12/29 11:12:23;;;;;;;2.97;1.65;;;;;;;11.72;70.46;96557.91;6026395;23;20190;-83
2021/12/29 11:14:53;;;;;;;4.07;1.92;;;;;;;11.63;70.87;96562.91;5993915;23;20272;-84
2021/12/29 11:17:25;;;;;;;3.58;1.70;;;;;;;11.65;70.84;96560.03;6027243;23;20222;-83
2021/12/29 11:19:56;;;;;;;4.60;1.90;;;;;;;11.74;70.69;96561.81;6027237;23;20461;-83
2021/12/29 11:22:24;;;;;;;3.45;1.77;;;;;;;11.79;70.28;96558.44;6002525;23;20229;-82
2021/12/29 11:24:56;;;;;;;4.55;1.75;;;;;;;11.55;70.97;96548.59;5993339;23;20321;-84
2021/12/29 11:27:22;;;;;;;2.92;1.40;;;;;;;11.66;70.83;96557.16;6026053;23;20193;-83
2021/12/29 11:29:57;;;;;;;2.65;1.83;;;;;;;11.64;70.69;96563.69;5994072;23;20218;-82
2021/12/29 11:32:35;;;;;;;4.95;1.80;;;;;;;11.68;70.75;96562.88;6026917;23;20269;-83
2021/12/29 11:35:20;;;;;;;7.25;1.73;;;;;;;11.51;70.94;96557.97;5994708;23;20609;-84
2021/12/29 11:37:52;;;;;;;4.05;1.50;;;;;;;11.58;70.88;96552.47;6028998;23;20257;-83
2021/12/29 11:40:24;;;;;;;4.03;1.48;;;;;;;11.73;70.39;96547.22;6028937;23;20238;-83
2021/12/29 11:42:50;;;;;;;5.43;1.17;;;;;;;11.65;71.23;96542.53;6028486;23;20256;-81